sensor_id;sensor_type;location;lat;lon;timestamp;P1;durP1;ratioP1;P2;durP2;ratioP2
18879;SDS011;9572;52.378;13.404;2023-04-30T00:01:46;6.50;;;1.80;;
18879;SDS011;9572;52.378;13.404;2023-04-30T00:04:12;6.23;;;1.93;;
18879;SDS011;9572;52.378;13.404;2023-04-30T00:06:39;5.90;;;1.90;;
18879;SDS011;9572;52.378;13.404;2023-04-30T00:09:08;6.63;;;1.63;;
18879;SDS011;9572;52.378;13.404;2023-04-30T00:11:35;4.73;;;1.47;;
18879;SDS011;9572;52.378;13.404;2023-04-30T00:14:02;4.97;;;1.80;;
18879;SDS011;9572;52.378;13.404;2023-04-30T00:16:28;9.03;;;1.67;;
18879;SDS011;9572;52.378;13.404;2023-04-30T00:18:55;5.97;;;1.80;;
18879;SDS011;9572;52.378;13.404;2023-04-30T00:21:22;7.20;;;1.80;;
18879;SDS011;9572;52.378;13.404;2023-04-30T00:23:49;6.47;;;1.50;;
18879;SDS011;9572;52.378;13.404;2023-04-30T00:26:17;6.07;;;1.77;;
18879;SDS011;9572;52.378;13.404;2023-04-30T00:28:44;6.30;;;1.50;;
18879;SDS011;9572;52.378;13.404;2023-04-30T00:31:11;4.83;;;1.67;;
18879;SDS011;9572;52.378;13.404;2023-04-30T00:33:38;5.67;;;1.50;;
18879;SDS011;9572;52.378;13.404;2023-04-30T00:36:05;5.13;;;1.43;;
18879;SDS011;9572;52.378;13.404;2023-04-30T00:38:32;4.67;;;1.40;;
18879;SDS011;9572;52.378;13.404;2023-04-30T00:40:59;7.57;;;1.97;;
18879;SDS011;9572;52.378;13.404;2023-04-30T00:43:27;10.30;;;1.67;;
18879;SDS011;9572;52.378;13.404;2023-04-30T00:45:54;7.73;;;1.50;;
18879;SDS011;9572;52.378;13.404;2023-04-30T00:48:22;6.10;;;2.27;;
18879;SDS011;9572;52.378;13.404;2023-04-30T00:50:50;5.87;;;1.37;;
18879;SDS011;9572;52.378;13.404;2023-04-30T00:53:17;3.50;;;1.70;;
18879;SDS011;9572;52.378;13.404;2023-04-30T00:55:45;5.67;;;1.57;;
18879;SDS011;9572;52.378;13.404;2023-04-30T00:58:13;5.23;;;1.60;;
18879;SDS011;9572;52.378;13.404;2023-04-30T01:00:41;9.53;;;1.17;;
18879;SDS011;9572;52.378;13.404;2023-04-30T01:03:11;7.70;;;1.30;;
18879;SDS011;9572;52.378;13.404;2023-04-30T01:05:38;6.87;;;1.40;;
18879;SDS011;9572;52.378;13.404;2023-04-30T01:08:05;4.93;;;1.17;;
18879;SDS011;9572;52.378;13.404;2023-04-30T01:10:35;7.23;;;1.70;;
18879;SDS011;9572;52.378;13.404;2023-04-30T01:13:08;2.97;;;1.30;;
18879;SDS011;9572;52.378;13.404;2023-04-30T01:15:44;2.70;;;1.27;;
18879;SDS011;9572;52.378;13.404;2023-04-30T01:18:17;8.50;;;1.93;;
18879;SDS011;9572;52.378;13.404;2023-04-30T01:20:52;3.67;;;1.30;;
18879;SDS011;9572;52.378;13.404;2023-04-30T01:23:24;3.87;;;1.20;;
18879;SDS011;9572;52.378;13.404;2023-04-30T01:26:06;2.73;;;1.13;;
18879;SDS011;9572;52.378;13.404;2023-04-30T01:28:40;4.00;;;1.50;;
18879;SDS011;9572;52.378;13.404;2023-04-30T01:31:12;3.37;;;1.67;;
18879;SDS011;9572;52.378;13.404;2023-04-30T01:33:40;4.37;;;1.77;;
18879;SDS011;9572;52.378;13.404;2023-04-30T01:36:25;4.93;;;1.77;;
18879;SDS011;9572;52.378;13.404;2023-04-30T01:39:14;3.57;;;2.10;;
18879;SDS011;9572;52.378;13.404;2023-04-30T01:41:49;6.27;;;2.33;;
18879;SDS011;9572;52.378;13.404;2023-04-30T01:44:28;6.53;;;2.30;;
18879;SDS011;9572;52.378;13.404;2023-04-30T01:47:07;7.97;;;2.30;;
18879;SDS011;9572;52.378;13.404;2023-04-30T01:49:41;5.57;;;2.10;;
18879;SDS011;9572;52.378;13.404;2023-04-30T01:52:20;10.70;;;2.73;;
18879;SDS011;9572;52.378;13.404;2023-04-30T01:54:51;10.57;;;2.33;;
18879;SDS011;9572;52.378;13.404;2023-04-30T01:57:25;5.77;;;2.10;;
18879;SDS011;9572;52.378;13.404;2023-04-30T01:59:56;11.67;;;2.37;;
18879;SDS011;9572;52.378;13.404;2023-04-30T02:02:23;5.63;;;2.30;;
18879;SDS011;9572;52.378;13.404;2023-04-30T02:04:50;7.97;;;2.40;;
18879;SDS011;9572;52.378;13.404;2023-04-30T02:07:20;8.07;;;2.67;;
18879;SDS011;9572;52.378;13.404;2023-04-30T02:09:58;6.80;;;2.10;;
18879;SDS011;9572;52.378;13.404;2023-04-30T02:12:25;6.63;;;2.17;;
18879;SDS011;9572;52.378;13.404;2023-04-30T02:14:55;10.80;;;2.63;;
18879;SDS011;9572;52.378;13.404;2023-04-30T02:17:22;6.53;;;2.03;;
18879;SDS011;9572;52.378;13.404;2023-04-30T02:19:49;5.50;;;1.90;;
18879;SDS011;9572;52.378;13.404;2023-04-30T02:22:16;7.03;;;2.10;;
18879;SDS011;9572;52.378;13.404;2023-04-30T02:24:43;7.97;;;2.20;;
18879;SDS011;9572;52.378;13.404;2023-04-30T02:27:10;7.33;;;2.60;;
18879;SDS011;9572;52.378;13.404;2023-04-30T02:29:37;10.23;;;2.33;;
18879;SDS011;9572;52.378;13.404;2023-04-30T02:32:05;9.73;;;2.83;;
18879;SDS011;9572;52.378;13.404;2023-04-30T02:34:33;7.23;;;2.63;;
18879;SDS011;9572;52.378;13.404;2023-04-30T02:36:59;6.87;;;2.13;;
18879;SDS011;9572;52.378;13.404;2023-04-30T02:39:26;4.50;;;1.90;;
18879;SDS011;9572;52.378;13.404;2023-04-30T02:41:53;6.83;;;1.90;;
18879;SDS011;9572;52.378;13.404;2023-04-30T02:44:20;4.47;;;2.03;;
18879;SDS011;9572;52.378;13.404;2023-04-30T02:46:47;7.07;;;2.17;;
18879;SDS011;9572;52.378;13.404;2023-04-30T02:49:16;6.57;;;2.20;;
18879;SDS011;9572;52.378;13.404;2023-04-30T02:51:43;8.23;;;2.70;;
18879;SDS011;9572;52.378;13.404;2023-04-30T02:54:09;7.77;;;2.90;;
18879;SDS011;9572;52.378;13.404;2023-04-30T02:56:36;4.50;;;2.27;;
18879;SDS011;9572;52.378;13.404;2023-04-30T02:59:03;6.57;;;2.30;;
18879;SDS011;9572;52.378;13.404;2023-04-30T03:01:31;7.33;;;2.27;;
18879;SDS011;9572;52.378;13.404;2023-04-30T03:03:58;4.30;;;2.03;;
18879;SDS011;9572;52.378;13.404;2023-04-30T03:06:26;4.90;;;1.80;;
18879;SDS011;9572;52.378;13.404;2023-04-30T03:08:53;4.50;;;2.13;;
18879;SDS011;9572;52.378;13.404;2023-04-30T03:11:20;8.80;;;2.60;;
18879;SDS011;9572;52.378;13.404;2023-04-30T03:13:47;7.30;;;2.07;;
18879;SDS011;9572;52.378;13.404;2023-04-30T03:16:15;6.10;;;2.00;;
18879;SDS011;9572;52.378;13.404;2023-04-30T03:18:43;7.77;;;2.00;;
18879;SDS011;9572;52.378;13.404;2023-04-30T03:21:10;5.60;;;2.17;;
18879;SDS011;9572;52.378;13.404;2023-04-30T03:23:38;5.70;;;2.10;;
18879;SDS011;9572;52.378;13.404;2023-04-30T03:26:05;5.37;;;2.00;;
18879;SDS011;9572;52.378;13.404;2023-04-30T03:28:32;5.80;;;2.20;;
18879;SDS011;9572;52.378;13.404;2023-04-30T03:30:59;5.17;;;2.30;;
18879;SDS011;9572;52.378;13.404;2023-04-30T03:33:29;7.03;;;2.23;;
18879;SDS011;9572;52.378;13.404;2023-04-30T03:35:56;7.20;;;2.70;;
18879;SDS011;9572;52.378;13.404;2023-04-30T03:38:23;4.90;;;2.40;;
18879;SDS011;9572;52.378;13.404;2023-04-30T03:40:51;6.57;;;2.50;;
18879;SDS011;9572;52.378;13.404;2023-04-30T03:43:18;5.80;;;2.47;;
18879;SDS011;9572;52.378;13.404;2023-04-30T03:45:45;8.40;;;2.67;;
18879;SDS011;9572;52.378;13.404;2023-04-30T03:48:12;5.83;;;2.43;;
18879;SDS011;9572;52.378;13.404;2023-04-30T03:50:39;5.07;;;2.27;;
18879;SDS011;9572;52.378;13.404;2023-04-30T03:53:06;4.90;;;2.50;;
18879;SDS011;9572;52.378;13.404;2023-04-30T03:55:32;5.23;;;2.33;;
18879;SDS011;9572;52.378;13.404;2023-04-30T03:58:01;7.87;;;2.10;;
18879;SDS011;9572;52.378;13.404;2023-04-30T04:00:28;4.57;;;2.23;;
18879;SDS011;9572;52.378;13.404;2023-04-30T04:02:56;10.33;;;2.60;;
18879;SDS011;9572;52.378;13.404;2023-04-30T04:05:23;4.60;;;2.50;;
18879;SDS011;9572;52.378;13.404;2023-04-30T04:07:50;9.23;;;2.73;;
18879;SDS011;9572;52.378;13.404;2023-04-30T04:10:17;3.97;;;2.33;;
18879;SDS011;9572;52.378;13.404;2023-04-30T04:12:44;6.63;;;2.30;;
18879;SDS011;9572;52.378;13.404;2023-04-30T04:15:13;5.77;;;2.83;;
18879;SDS011;9572;52.378;13.404;2023-04-30T04:17:40;5.60;;;2.50;;
18879;SDS011;9572;52.378;13.404;2023-04-30T04:20:07;6.17;;;2.47;;
18879;SDS011;9572;52.378;13.404;2023-04-30T04:22:34;6.47;;;2.97;;
18879;SDS011;9572;52.378;13.404;2023-04-30T04:25:01;8.83;;;2.60;;
18879;SDS011;9572;52.378;13.404;2023-04-30T04:27:28;7.37;;;2.50;;
18879;SDS011;9572;52.378;13.404;2023-04-30T04:29:55;10.37;;;2.47;;
18879;SDS011;9572;52.378;13.404;2023-04-30T04:32:23;8.83;;;2.80;;
18879;SDS011;9572;52.378;13.404;2023-04-30T04:34:51;7.87;;;2.57;;
18879;SDS011;9572;52.378;13.404;2023-04-30T04:37:21;5.50;;;2.60;;
18879;SDS011;9572;52.378;13.404;2023-04-30T04:39:47;6.10;;;2.50;;
18879;SDS011;9572;52.378;13.404;2023-04-30T04:42:15;8.63;;;2.70;;
18879;SDS011;9572;52.378;13.404;2023-04-30T04:44:42;8.57;;;2.83;;
18879;SDS011;9572;52.378;13.404;2023-04-30T04:47:09;10.87;;;3.87;;
18879;SDS011;9572;52.378;13.404;2023-04-30T04:49:38;5.00;;;2.60;;
18879;SDS011;9572;52.378;13.404;2023-04-30T04:52:05;13.07;;;3.23;;
18879;SDS011;9572;52.378;13.404;2023-04-30T04:54:32;9.13;;;2.70;;
18879;SDS011;9572;52.378;13.404;2023-04-30T04:56:59;9.67;;;2.93;;
18879;SDS011;9572;52.378;13.404;2023-04-30T04:59:27;5.80;;;2.50;;
18879;SDS011;9572;52.378;13.404;2023-04-30T05:01:54;9.30;;;2.97;;
18879;SDS011;9572;52.378;13.404;2023-04-30T05:04:21;13.77;;;3.10;;
18879;SDS011;9572;52.378;13.404;2023-04-30T05:06:49;6.57;;;2.37;;
18879;SDS011;9572;52.378;13.404;2023-04-30T05:09:16;9.17;;;3.00;;
18879;SDS011;9572;52.378;13.404;2023-04-30T05:11:43;9.17;;;3.10;;
18879;SDS011;9572;52.378;13.404;2023-04-30T05:14:10;4.40;;;2.40;;
18879;SDS011;9572;52.378;13.404;2023-04-30T05:16:37;8.47;;;3.00;;
18879;SDS011;9572;52.378;13.404;2023-04-30T05:19:04;7.30;;;2.93;;
18879;SDS011;9572;52.378;13.404;2023-04-30T05:21:31;16.03;;;3.00;;
18879;SDS011;9572;52.378;13.404;2023-04-30T05:23:59;9.27;;;3.37;;
18879;SDS011;9572;52.378;13.404;2023-04-30T05:26:26;6.77;;;2.57;;
18879;SDS011;9572;52.378;13.404;2023-04-30T05:28:53;8.03;;;3.07;;
18879;SDS011;9572;52.378;13.404;2023-04-30T05:31:20;5.17;;;2.53;;
18879;SDS011;9572;52.378;13.404;2023-04-30T05:33:46;8.47;;;2.80;;
18879;SDS011;9572;52.378;13.404;2023-04-30T05:36:13;5.80;;;2.43;;
18879;SDS011;9572;52.378;13.404;2023-04-30T05:38:40;10.03;;;2.47;;
18879;SDS011;9572;52.378;13.404;2023-04-30T05:41:10;7.77;;;2.87;;
18879;SDS011;9572;52.378;13.404;2023-04-30T05:43:37;9.87;;;2.87;;
18879;SDS011;9572;52.378;13.404;2023-04-30T05:46:04;8.40;;;2.70;;
18879;SDS011;9572;52.378;13.404;2023-04-30T05:48:31;14.83;;;2.93;;
18879;SDS011;9572;52.378;13.404;2023-04-30T05:50:58;6.57;;;2.67;;
18879;SDS011;9572;52.378;13.404;2023-04-30T05:53:25;10.57;;;2.90;;
18879;SDS011;9572;52.378;13.404;2023-04-30T05:55:52;8.70;;;2.80;;
18879;SDS011;9572;52.378;13.404;2023-04-30T05:58:20;9.77;;;2.77;;
18879;SDS011;9572;52.378;13.404;2023-04-30T06:00:47;8.90;;;2.80;;
18879;SDS011;9572;52.378;13.404;2023-04-30T06:03:16;9.07;;;2.90;;
18879;SDS011;9572;52.378;13.404;2023-04-30T06:05:43;11.63;;;3.20;;
18879;SDS011;9572;52.378;13.404;2023-04-30T06:08:10;6.97;;;2.70;;
18879;SDS011;9572;52.378;13.404;2023-04-30T06:10:37;11.53;;;2.90;;
18879;SDS011;9572;52.378;13.404;2023-04-30T06:13:04;9.37;;;2.97;;
18879;SDS011;9572;52.378;13.404;2023-04-30T06:15:33;12.20;;;2.53;;
18879;SDS011;9572;52.378;13.404;2023-04-30T06:18:00;5.97;;;2.73;;
18879;SDS011;9572;52.378;13.404;2023-04-30T06:20:27;11.30;;;3.13;;
18879;SDS011;9572;52.378;13.404;2023-04-30T06:22:54;10.83;;;2.90;;
18879;SDS011;9572;52.378;13.404;2023-04-30T06:25:20;7.27;;;2.50;;
18879;SDS011;9572;52.378;13.404;2023-04-30T06:27:47;13.97;;;3.80;;
18879;SDS011;9572;52.378;13.404;2023-04-30T06:30:15;7.37;;;3.00;;
18879;SDS011;9572;52.378;13.404;2023-04-30T06:32:44;13.63;;;3.10;;
18879;SDS011;9572;52.378;13.404;2023-04-30T06:35:11;9.23;;;3.10;;
18879;SDS011;9572;52.378;13.404;2023-04-30T06:37:37;8.57;;;2.83;;
18879;SDS011;9572;52.378;13.404;2023-04-30T06:40:05;12.07;;;3.17;;
18879;SDS011;9572;52.378;13.404;2023-04-30T06:42:32;7.93;;;3.17;;
18879;SDS011;9572;52.378;13.404;2023-04-30T06:45:00;8.50;;;3.07;;
18879;SDS011;9572;52.378;13.404;2023-04-30T06:47:27;8.20;;;3.20;;
18879;SDS011;9572;52.378;13.404;2023-04-30T06:49:59;13.43;;;3.30;;
18879;SDS011;9572;52.378;13.404;2023-04-30T06:52:26;5.37;;;2.47;;
18879;SDS011;9572;52.378;13.404;2023-04-30T06:54:53;13.93;;;4.10;;
18879;SDS011;9572;52.378;13.404;2023-04-30T06:57:20;9.50;;;3.00;;
18879;SDS011;9572;52.378;13.404;2023-04-30T06:59:48;16.60;;;3.60;;
18879;SDS011;9572;52.378;13.404;2023-04-30T07:02:15;8.83;;;2.77;;
18879;SDS011;9572;52.378;13.404;2023-04-30T07:04:42;6.43;;;2.63;;
18879;SDS011;9572;52.378;13.404;2023-04-30T07:07:10;8.93;;;2.73;;
18879;SDS011;9572;52.378;13.404;2023-04-30T07:09:37;9.63;;;2.60;;
18879;SDS011;9572;52.378;13.404;2023-04-30T07:12:04;11.30;;;3.10;;
18879;SDS011;9572;52.378;13.404;2023-04-30T07:14:31;6.57;;;3.00;;
18879;SDS011;9572;52.378;13.404;2023-04-30T07:16:58;12.37;;;3.40;;
18879;SDS011;9572;52.378;13.404;2023-04-30T07:19:25;12.03;;;3.53;;
18879;SDS011;9572;52.378;13.404;2023-04-30T07:21:52;9.67;;;3.00;;
18879;SDS011;9572;52.378;13.404;2023-04-30T07:24:20;12.33;;;3.13;;
18879;SDS011;9572;52.378;13.404;2023-04-30T07:26:47;7.17;;;2.63;;
18879;SDS011;9572;52.378;13.404;2023-04-30T07:29:14;9.77;;;3.43;;
18879;SDS011;9572;52.378;13.404;2023-04-30T07:31:42;10.77;;;3.27;;
18879;SDS011;9572;52.378;13.404;2023-04-30T07:34:09;12.53;;;3.27;;
18879;SDS011;9572;52.378;13.404;2023-04-30T07:36:37;9.63;;;3.00;;
18879;SDS011;9572;52.378;13.404;2023-04-30T07:39:04;9.67;;;2.73;;
18879;SDS011;9572;52.378;13.404;2023-04-30T07:41:33;5.40;;;2.60;;
18879;SDS011;9572;52.378;13.404;2023-04-30T07:44:00;9.87;;;2.87;;
18879;SDS011;9572;52.378;13.404;2023-04-30T07:46:27;12.40;;;3.17;;
18879;SDS011;9572;52.378;13.404;2023-04-30T07:48:54;6.77;;;2.50;;
18879;SDS011;9572;52.378;13.404;2023-04-30T07:51:21;9.57;;;2.63;;
18879;SDS011;9572;52.378;13.404;2023-04-30T07:53:48;10.10;;;3.07;;
18879;SDS011;9572;52.378;13.404;2023-04-30T07:56:17;9.43;;;2.77;;
18879;SDS011;9572;52.378;13.404;2023-04-30T07:58:45;7.83;;;2.83;;
18879;SDS011;9572;52.378;13.404;2023-04-30T08:01:12;7.07;;;2.50;;
18879;SDS011;9572;52.378;13.404;2023-04-30T08:03:40;8.82;;;2.95;;
18879;SDS011;9572;52.378;13.404;2023-04-30T08:06:07;7.40;;;2.33;;
18879;SDS011;9572;52.378;13.404;2023-04-30T08:08:34;6.88;;;2.40;;
18879;SDS011;9572;52.378;13.404;2023-04-30T08:11:00;11.03;;;2.50;;
18879;SDS011;9572;52.378;13.404;2023-04-30T08:13:27;7.95;;;2.75;;
18879;SDS011;9572;52.378;13.404;2023-04-30T08:15:56;10.02;;;2.53;;
18879;SDS011;9572;52.378;13.404;2023-04-30T08:18:23;4.90;;;2.28;;
18879;SDS011;9572;52.378;13.404;2023-04-30T08:20:50;7.35;;;2.42;;
18879;SDS011;9572;52.378;13.404;2023-04-30T08:23:17;9.05;;;2.55;;
18879;SDS011;9572;52.378;13.404;2023-04-30T08:25:43;6.15;;;2.63;;
18879;SDS011;9572;52.378;13.404;2023-04-30T08:28:10;9.15;;;2.78;;
18879;SDS011;9572;52.378;13.404;2023-04-30T08:30:37;8.52;;;2.92;;
18879;SDS011;9572;52.378;13.404;2023-04-30T08:33:06;6.40;;;2.33;;
18879;SDS011;9572;52.378;13.404;2023-04-30T08:35:33;7.32;;;2.42;;
18879;SDS011;9572;52.378;13.404;2023-04-30T08:38:00;10.13;;;2.20;;
18879;SDS011;9572;52.378;13.404;2023-04-30T08:40:26;7.82;;;2.50;;
18879;SDS011;9572;52.378;13.404;2023-04-30T08:42:56;10.25;;;2.92;;
18879;SDS011;9572;52.378;13.404;2023-04-30T08:45:30;8.50;;;2.17;;
18879;SDS011;9572;52.378;13.404;2023-04-30T08:47:57;4.03;;;2.30;;
18879;SDS011;9572;52.378;13.404;2023-04-30T08:50:27;5.35;;;1.90;;
18879;SDS011;9572;52.378;13.404;2023-04-30T08:52:53;5.50;;;1.88;;
18879;SDS011;9572;52.378;13.404;2023-04-30T08:55:21;6.22;;;2.00;;
18879;SDS011;9572;52.378;13.404;2023-04-30T08:57:50;5.43;;;2.30;;
18879;SDS011;9572;52.378;13.404;2023-04-30T09:00:17;5.47;;;2.00;;
18879;SDS011;9572;52.378;13.404;2023-04-30T09:02:44;5.78;;;2.22;;
18879;SDS011;9572;52.378;13.404;2023-04-30T09:05:13;7.25;;;2.13;;
18879;SDS011;9572;52.378;13.404;2023-04-30T09:07:42;10.02;;;2.25;;
18879;SDS011;9572;52.378;13.404;2023-04-30T09:10:14;7.55;;;2.28;;
18879;SDS011;9572;52.378;13.404;2023-04-30T09:12:41;9.32;;;2.30;;
18879;SDS011;9572;52.378;13.404;2023-04-30T09:15:10;4.68;;;2.55;;
18879;SDS011;9572;52.378;13.404;2023-04-30T09:17:37;12.57;;;2.40;;
18879;SDS011;9572;52.378;13.404;2023-04-30T09:20:05;5.15;;;2.10;;
18879;SDS011;9572;52.378;13.404;2023-04-30T09:22:33;4.55;;;2.13;;
18879;SDS011;9572;52.378;13.404;2023-04-30T09:25:03;6.53;;;2.25;;
18879;SDS011;9572;52.378;13.404;2023-04-30T09:27:31;4.53;;;2.25;;
18879;SDS011;9572;52.378;13.404;2023-04-30T09:29:58;6.68;;;2.28;;
18879;SDS011;9572;52.378;13.404;2023-04-30T09:32:25;5.75;;;2.00;;
18879;SDS011;9572;52.378;13.404;2023-04-30T09:34:52;6.53;;;2.25;;
18879;SDS011;9572;52.378;13.404;2023-04-30T09:37:20;4.18;;;1.77;;
18879;SDS011;9572;52.378;13.404;2023-04-30T09:39:48;7.05;;;2.30;;
18879;SDS011;9572;52.378;13.404;2023-04-30T09:42:17;4.07;;;2.10;;
18879;SDS011;9572;52.378;13.404;2023-04-30T09:44:44;7.00;;;2.13;;
18879;SDS011;9572;52.378;13.404;2023-04-30T09:47:12;3.90;;;1.50;;
18879;SDS011;9572;52.378;13.404;2023-04-30T09:49:41;4.50;;;2.00;;
18879;SDS011;9572;52.378;13.404;2023-04-30T09:52:09;6.50;;;2.22;;
18879;SDS011;9572;52.378;13.404;2023-04-30T09:54:37;6.40;;;2.08;;
18879;SDS011;9572;52.378;13.404;2023-04-30T09:57:04;4.03;;;2.05;;
18879;SDS011;9572;52.378;13.404;2023-04-30T09:59:36;3.75;;;1.98;;
18879;SDS011;9572;52.378;13.404;2023-04-30T10:02:04;4.90;;;2.13;;
18879;SDS011;9572;52.378;13.404;2023-04-30T10:04:33;6.18;;;1.90;;
18879;SDS011;9572;52.378;13.404;2023-04-30T10:07:02;6.78;;;2.08;;
18879;SDS011;9572;52.378;13.404;2023-04-30T10:09:34;5.20;;;1.77;;
18879;SDS011;9572;52.378;13.404;2023-04-30T10:12:05;4.53;;;1.83;;
18879;SDS011;9572;52.378;13.404;2023-04-30T10:14:38;5.32;;;1.73;;
18879;SDS011;9572;52.378;13.404;2023-04-30T10:17:10;5.97;;;1.92;;
18879;SDS011;9572;52.378;13.404;2023-04-30T10:19:40;4.72;;;1.70;;
18879;SDS011;9572;52.378;13.404;2023-04-30T10:22:11;3.60;;;1.90;;
18879;SDS011;9572;52.378;13.404;2023-04-30T10:24:39;4.90;;;1.60;;
18879;SDS011;9572;52.378;13.404;2023-04-30T10:27:08;5.35;;;1.90;;
18879;SDS011;9572;52.378;13.404;2023-04-30T10:29:35;6.82;;;2.00;;
18879;SDS011;9572;52.378;13.404;2023-04-30T10:32:04;5.20;;;1.70;;
18879;SDS011;9572;52.378;13.404;2023-04-30T10:34:35;5.45;;;1.80;;
18879;SDS011;9572;52.378;13.404;2023-04-30T10:37:10;3.38;;;1.45;;
18879;SDS011;9572;52.378;13.404;2023-04-30T10:39:44;3.28;;;1.92;;
18879;SDS011;9572;52.378;13.404;2023-04-30T10:42:12;4.32;;;1.70;;
18879;SDS011;9572;52.378;13.404;2023-04-30T10:44:39;5.10;;;2.15;;
18879;SDS011;9572;52.378;13.404;2023-04-30T10:47:07;7.95;;;1.85;;
18879;SDS011;9572;52.378;13.404;2023-04-30T10:49:35;8.45;;;2.28;;
18879;SDS011;9572;52.378;13.404;2023-04-30T10:52:02;5.05;;;2.15;;
18879;SDS011;9572;52.378;13.404;2023-04-30T10:54:30;2.97;;;1.98;;
18879;SDS011;9572;52.378;13.404;2023-04-30T10:57:09;5.28;;;2.15;;
18879;SDS011;9572;52.378;13.404;2023-04-30T10:59:37;5.15;;;2.35;;
18879;SDS011;9572;52.378;13.404;2023-04-30T11:02:10;2.47;;;1.85;;
18879;SDS011;9572;52.378;13.404;2023-04-30T11:05:07;6.13;;;2.10;;
18879;SDS011;9572;52.378;13.404;2023-04-30T11:07:35;4.75;;;2.05;;
18879;SDS011;9572;52.378;13.404;2023-04-30T11:10:06;6.97;;;2.17;;
18879;SDS011;9572;52.378;13.404;2023-04-30T11:12:33;5.65;;;2.10;;
18879;SDS011;9572;52.378;13.404;2023-04-30T11:15:06;3.47;;;1.85;;
18879;SDS011;9572;52.378;13.404;2023-04-30T11:17:39;3.92;;;2.00;;
18879;SDS011;9572;52.378;13.404;2023-04-30T11:20:11;7.05;;;2.17;;
18879;SDS011;9572;52.378;13.404;2023-04-30T11:22:38;5.10;;;2.20;;
18879;SDS011;9572;52.378;13.404;2023-04-30T11:25:07;4.90;;;2.17;;
18879;SDS011;9572;52.378;13.404;2023-04-30T11:27:35;5.03;;;1.83;;
18879;SDS011;9572;52.378;13.404;2023-04-30T11:30:08;5.32;;;1.98;;
18879;SDS011;9572;52.378;13.404;2023-04-30T11:32:37;4.28;;;2.30;;
18879;SDS011;9572;52.378;13.404;2023-04-30T11:35:06;4.70;;;1.92;;
18879;SDS011;9572;52.378;13.404;2023-04-30T11:37:34;4.88;;;1.83;;
18879;SDS011;9572;52.378;13.404;2023-04-30T11:40:03;3.30;;;1.95;;
18879;SDS011;9572;52.378;13.404;2023-04-30T11:42:32;3.22;;;1.70;;
18879;SDS011;9572;52.378;13.404;2023-04-30T11:45:03;4.05;;;2.08;;
18879;SDS011;9572;52.378;13.404;2023-04-30T11:47:40;5.20;;;2.03;;
18879;SDS011;9572;52.378;13.404;2023-04-30T11:50:08;5.90;;;1.90;;
18879;SDS011;9572;52.378;13.404;2023-04-30T11:52:35;4.38;;;1.90;;
18879;SDS011;9572;52.378;13.404;2023-04-30T11:55:07;3.70;;;1.92;;
18879;SDS011;9572;52.378;13.404;2023-04-30T11:57:39;3.65;;;1.83;;
18879;SDS011;9572;52.378;13.404;2023-04-30T12:00:08;5.03;;;1.98;;
18879;SDS011;9572;52.378;13.404;2023-04-30T12:02:36;4.53;;;1.92;;
18879;SDS011;9572;52.378;13.404;2023-04-30T12:05:05;6.35;;;2.13;;
18879;SDS011;9572;52.378;13.404;2023-04-30T12:07:43;4.57;;;2.10;;
18879;SDS011;9572;52.378;13.404;2023-04-30T12:10:11;6.45;;;2.20;;
18879;SDS011;9572;52.378;13.404;2023-04-30T12:12:38;5.18;;;1.70;;
18879;SDS011;9572;52.378;13.404;2023-04-30T12:15:12;5.25;;;2.13;;
18879;SDS011;9572;52.378;13.404;2023-04-30T12:17:40;5.15;;;2.05;;
18879;SDS011;9572;52.378;13.404;2023-04-30T12:20:10;7.90;;;2.70;;
18879;SDS011;9572;52.378;13.404;2023-04-30T12:22:38;5.93;;;2.10;;
18879;SDS011;9572;52.378;13.404;2023-04-30T12:25:06;3.97;;;2.10;;
18879;SDS011;9572;52.378;13.404;2023-04-30T12:27:35;4.22;;;1.85;;
18879;SDS011;9572;52.378;13.404;2023-04-30T12:30:04;5.70;;;2.17;;
18879;SDS011;9572;52.378;13.404;2023-04-30T12:32:37;3.47;;;2.03;;
18879;SDS011;9572;52.378;13.404;2023-04-30T12:35:05;2.83;;;1.90;;
18879;SDS011;9572;52.378;13.404;2023-04-30T12:37:34;4.22;;;2.10;;
18879;SDS011;9572;52.378;13.404;2023-04-30T12:40:01;6.95;;;2.20;;
18879;SDS011;9572;52.378;13.404;2023-04-30T12:42:31;6.03;;;2.00;;
18879;SDS011;9572;52.378;13.404;2023-04-30T12:44:59;7.15;;;2.30;;
18879;SDS011;9572;52.378;13.404;2023-04-30T12:47:26;3.72;;;2.00;;
18879;SDS011;9572;52.378;13.404;2023-04-30T12:49:54;5.72;;;2.42;;
18879;SDS011;9572;52.378;13.404;2023-04-30T12:52:22;6.55;;;2.08;;
18879;SDS011;9572;52.378;13.404;2023-04-30T12:54:52;7.22;;;2.15;;
18879;SDS011;9572;52.378;13.404;2023-04-30T12:57:20;3.85;;;2.00;;
18879;SDS011;9572;52.378;13.404;2023-04-30T13:02:32;4.25;;;2.15;;
18879;SDS011;9572;52.378;13.404;2023-04-30T13:04:59;5.07;;;2.38;;
18879;SDS011;9572;52.378;13.404;2023-04-30T13:07:33;4.78;;;2.35;;
18879;SDS011;9572;52.378;13.404;2023-04-30T13:10:04;5.75;;;2.65;;
18879;SDS011;9572;52.378;13.404;2023-04-30T13:12:32;4.90;;;2.22;;
18879;SDS011;9572;52.378;13.404;2023-04-30T13:14:59;3.92;;;2.25;;
18879;SDS011;9572;52.378;13.404;2023-04-30T13:17:27;4.55;;;2.08;;
18879;SDS011;9572;52.378;13.404;2023-04-30T13:19:54;7.70;;;2.53;;
18879;SDS011;9572;52.378;13.404;2023-04-30T13:22:21;5.18;;;2.25;;
18879;SDS011;9572;52.378;13.404;2023-04-30T13:24:49;6.80;;;2.40;;
18879;SDS011;9572;52.378;13.404;2023-04-30T13:27:17;8.48;;;2.40;;
18879;SDS011;9572;52.378;13.404;2023-04-30T13:29:44;5.35;;;2.50;;
18879;SDS011;9572;52.378;13.404;2023-04-30T13:32:11;4.55;;;2.20;;
18879;SDS011;9572;52.378;13.404;2023-04-30T13:34:38;6.45;;;2.47;;
18879;SDS011;9572;52.378;13.404;2023-04-30T13:37:04;8.88;;;2.65;;
18879;SDS011;9572;52.378;13.404;2023-04-30T13:39:31;7.25;;;2.40;;
18879;SDS011;9572;52.378;13.404;2023-04-30T13:41:58;5.30;;;2.40;;
18879;SDS011;9572;52.378;13.404;2023-04-30T13:44:26;8.73;;;2.22;;
18879;SDS011;9572;52.378;13.404;2023-04-30T13:46:56;6.65;;;2.63;;
18879;SDS011;9572;52.378;13.404;2023-04-30T13:49:23;8.48;;;2.55;;
18879;SDS011;9572;52.378;13.404;2023-04-30T13:51:50;8.18;;;2.80;;
18879;SDS011;9572;52.378;13.404;2023-04-30T13:54:17;5.60;;;2.90;;
18879;SDS011;9572;52.378;13.404;2023-04-30T13:56:44;7.25;;;3.03;;
18879;SDS011;9572;52.378;13.404;2023-04-30T13:59:12;9.52;;;2.90;;
18879;SDS011;9572;52.378;13.404;2023-04-30T14:01:41;7.15;;;2.50;;
18879;SDS011;9572;52.378;13.404;2023-04-30T14:04:08;9.15;;;2.97;;
18879;SDS011;9572;52.378;13.404;2023-04-30T14:06:35;9.35;;;2.90;;
18879;SDS011;9572;52.378;13.404;2023-04-30T14:09:03;10.57;;;3.10;;
18879;SDS011;9572;52.378;13.404;2023-04-30T14:11:30;6.75;;;2.60;;
18879;SDS011;9572;52.378;13.404;2023-04-30T14:13:57;4.90;;;2.28;;
18879;SDS011;9572;52.378;13.404;2023-04-30T14:16:24;5.57;;;2.38;;
18879;SDS011;9572;52.378;13.404;2023-04-30T14:18:52;7.30;;;2.70;;
18879;SDS011;9572;52.378;13.404;2023-04-30T14:21:19;5.05;;;2.42;;
18879;SDS011;9572;52.378;13.404;2023-04-30T14:23:46;10.32;;;3.17;;
18879;SDS011;9572;52.378;13.404;2023-04-30T14:26:13;3.30;;;2.28;;
18879;SDS011;9572;52.378;13.404;2023-04-30T14:28:40;6.45;;;2.28;;
18879;SDS011;9572;52.378;13.404;2023-04-30T14:31:07;4.80;;;2.00;;
18879;SDS011;9572;52.378;13.404;2023-04-30T14:33:34;6.13;;;2.10;;
18879;SDS011;9572;52.378;13.404;2023-04-30T14:36:03;4.07;;;2.10;;
18879;SDS011;9572;52.378;13.404;2023-04-30T14:38:30;4.97;;;2.17;;
18879;SDS011;9572;52.378;13.404;2023-04-30T14:40:57;6.40;;;2.33;;
18879;SDS011;9572;52.378;13.404;2023-04-30T14:43:24;4.70;;;2.13;;
18879;SDS011;9572;52.378;13.404;2023-04-30T14:45:51;5.95;;;2.00;;
18879;SDS011;9572;52.378;13.404;2023-04-30T14:48:18;5.07;;;2.00;;
18879;SDS011;9572;52.378;13.404;2023-04-30T14:50:45;6.15;;;2.10;;
18879;SDS011;9572;52.378;13.404;2023-04-30T14:53:13;10.80;;;2.10;;
18879;SDS011;9572;52.378;13.404;2023-04-30T14:55:40;10.52;;;2.20;;